sensor_id;sensor_type;location;lat;lon;timestamp;P1;durP1;ratioP1;P2;durP2;ratioP2
37527;SDS011;23372;52.050;4.810;2024-03-23T00:54:01;19.77;;;6.53;;
37527;SDS011;23372;52.050;4.810;2024-03-23T00:56:26;24.83;;;5.70;;
37527;SDS011;23372;52.050;4.810;2024-03-23T00:58:52;20.37;;;6.07;;
37527;SDS011;23372;52.050;4.810;2024-03-23T01:01:17;17.77;;;5.77;;
37527;SDS011;23372;52.050;4.810;2024-03-23T01:03:43;19.43;;;6.30;;
37527;SDS011;23372;52.050;4.810;2024-03-23T01:06:08;20.97;;;6.60;;
37527;SDS011;23372;52.050;4.810;2024-03-23T01:08:34;22.57;;;6.43;;
37527;SDS011;23372;52.050;4.810;2024-03-23T01:11:00;20.70;;;6.53;;
37527;SDS011;23372;52.050;4.810;2024-03-23T01:13:27;22.77;;;6.00;;
37527;SDS011;23372;52.050;4.810;2024-03-23T01:15:54;22.57;;;6.20;;
37527;SDS011;23372;52.050;4.810;2024-03-23T01:18:21;21.33;;;5.30;;
37527;SDS011;23372;52.050;4.810;2024-03-23T01:20:47;17.40;;;5.87;;
37527;SDS011;23372;52.050;4.810;2024-03-23T01:23:13;19.30;;;4.60;;
37527;SDS011;23372;52.050;4.810;2024-03-23T01:25:38;16.67;;;4.90;;
37527;SDS011;23372;52.050;4.810;2024-03-23T01:28:04;19.47;;;5.27;;
37527;SDS011;23372;52.050;4.810;2024-03-23T01:30:32;14.87;;;4.60;;
37527;SDS011;23372;52.050;4.810;2024-03-23T01:32:57;21.43;;;5.07;;
37527;SDS011;23372;52.050;4.810;2024-03-23T01:35:23;28.00;;;5.27;;
37527;SDS011;23372;52.050;4.810;2024-03-23T01:37:49;19.57;;;5.00;;
37527;SDS011;23372;52.050;4.810;2024-03-23T01:40:16;18.97;;;5.60;;
37527;SDS011;23372;52.050;4.810;2024-03-23T01:42:41;19.80;;;4.50;;
37527;SDS011;23372;52.050;4.810;2024-03-23T01:45:07;18.17;;;4.70;;
37527;SDS011;23372;52.050;4.810;2024-03-23T01:47:34;26.13;;;4.77;;
37527;SDS011;23372;52.050;4.810;2024-03-23T01:50:00;16.40;;;4.33;;
37527;SDS011;23372;52.050;4.810;2024-03-23T01:52:26;20.77;;;4.63;;
37527;SDS011;23372;52.050;4.810;2024-03-23T01:54:53;17.93;;;4.10;;
37527;SDS011;23372;52.050;4.810;2024-03-23T01:57:20;13.67;;;4.03;;
37527;SDS011;23372;52.050;4.810;2024-03-23T01:59:46;22.03;;;4.27;;
37527;SDS011;23372;52.050;4.810;2024-03-23T02:02:12;23.67;;;4.20;;
37527;SDS011;23372;52.050;4.810;2024-03-23T02:04:38;15.47;;;3.67;;
37527;SDS011;23372;52.050;4.810;2024-03-23T02:07:04;18.63;;;4.17;;
37527;SDS011;23372;52.050;4.810;2024-03-23T02:09:31;25.90;;;4.27;;
37527;SDS011;23372;52.050;4.810;2024-03-23T02:11:57;20.80;;;3.90;;
37527;SDS011;23372;52.050;4.810;2024-03-23T02:14:23;16.43;;;4.13;;
37527;SDS011;23372;52.050;4.810;2024-03-23T02:16:48;11.17;;;3.70;;
37527;SDS011;23372;52.050;4.810;2024-03-23T02:19:14;21.43;;;3.20;;
37527;SDS011;23372;52.050;4.810;2024-03-23T02:21:39;11.37;;;3.27;;
37527;SDS011;23372;52.050;4.810;2024-03-23T02:24:05;16.80;;;3.03;;
37527;SDS011;23372;52.050;4.810;2024-03-23T02:26:31;21.73;;;3.30;;
37527;SDS011;23372;52.050;4.810;2024-03-23T02:28:56;12.50;;;3.20;;
37527;SDS011;23372;52.050;4.810;2024-03-23T02:31:22;18.63;;;3.47;;
37527;SDS011;23372;52.050;4.810;2024-03-23T02:33:48;19.67;;;3.50;;
37527;SDS011;23372;52.050;4.810;2024-03-23T02:36:13;14.60;;;2.93;;
37527;SDS011;23372;52.050;4.810;2024-03-23T02:38:39;15.70;;;2.90;;
37527;SDS011;23372;52.050;4.810;2024-03-23T02:41:05;17.53;;;3.17;;
37527;SDS011;23372;52.050;4.810;2024-03-23T02:43:31;10.57;;;2.73;;
37527;SDS011;23372;52.050;4.810;2024-03-23T02:45:56;16.77;;;3.07;;
37527;SDS011;23372;52.050;4.810;2024-03-23T02:48:22;12.27;;;2.40;;
37527;SDS011;23372;52.050;4.810;2024-03-23T02:50:48;14.63;;;2.67;;
37527;SDS011;23372;52.050;4.810;2024-03-23T02:53:15;15.73;;;3.67;;
37527;SDS011;23372;52.050;4.810;2024-03-23T02:55:41;12.50;;;2.67;;
37527;SDS011;23372;52.050;4.810;2024-03-23T02:58:06;12.67;;;2.57;;
37527;SDS011;23372;52.050;4.810;2024-03-23T03:00:32;13.90;;;2.47;;
37527;SDS011;23372;52.050;4.810;2024-03-23T03:02:58;13.60;;;2.40;;
37527;SDS011;23372;52.050;4.810;2024-03-23T03:05:23;6.47;;;1.90;;
37527;SDS011;23372;52.050;4.810;2024-03-23T03:07:49;14.00;;;2.37;;
37527;SDS011;23372;52.050;4.810;2024-03-23T03:10:15;19.30;;;2.60;;
37527;SDS011;23372;52.050;4.810;2024-03-23T03:12:41;11.13;;;2.93;;
37527;SDS011;23372;52.050;4.810;2024-03-23T03:15:07;12.90;;;2.90;;
37527;SDS011;23372;52.050;4.810;2024-03-23T03:17:34;13.90;;;2.10;;
37527;SDS011;23372;52.050;4.810;2024-03-23T03:19:59;12.00;;;2.07;;
37527;SDS011;23372;52.050;4.810;2024-03-23T03:22:25;16.07;;;2.47;;
37527;SDS011;23372;52.050;4.810;2024-03-23T03:24:51;12.10;;;2.00;;
37527;SDS011;23372;52.050;4.810;2024-03-23T03:27:17;19.30;;;4.27;;
37527;SDS011;23372;52.050;4.810;2024-03-23T03:29:42;15.07;;;2.37;;
37527;SDS011;23372;52.050;4.810;2024-03-23T03:32:08;9.13;;;2.23;;
37527;SDS011;23372;52.050;4.810;2024-03-23T03:34:33;11.50;;;2.00;;
37527;SDS011;23372;52.050;4.810;2024-03-23T03:36:59;8.97;;;2.33;;
37527;SDS011;23372;52.050;4.810;2024-03-23T03:39:25;13.50;;;2.50;;
37527;SDS011;23372;52.050;4.810;2024-03-23T03:41:51;13.87;;;2.13;;
37527;SDS011;23372;52.050;4.810;2024-03-23T03:44:17;13.43;;;2.30;;
37527;SDS011;23372;52.050;4.810;2024-03-23T03:46:42;10.47;;;2.40;;
37527;SDS011;23372;52.050;4.810;2024-03-23T03:49:08;10.07;;;1.77;;
37527;SDS011;23372;52.050;4.810;2024-03-23T03:51:34;10.03;;;2.00;;
37527;SDS011;23372;52.050;4.810;2024-03-23T03:54:00;8.33;;;1.77;;
37527;SDS011;23372;52.050;4.810;2024-03-23T03:56:26;14.47;;;2.80;;
37527;SDS011;23372;52.050;4.810;2024-03-23T03:58:52;9.90;;;2.13;;
37527;SDS011;23372;52.050;4.810;2024-03-23T04:01:18;15.27;;;2.73;;
37527;SDS011;23372;52.050;4.810;2024-03-23T04:03:43;13.37;;;2.83;;
37527;SDS011;23372;52.050;4.810;2024-03-23T04:06:10;11.63;;;2.10;;
37527;SDS011;23372;52.050;4.810;2024-03-23T04:08:36;8.73;;;2.20;;
37527;SDS011;23372;52.050;4.810;2024-03-23T04:11:01;11.63;;;2.33;;
37527;SDS011;23372;52.050;4.810;2024-03-23T04:13:27;9.80;;;2.17;;
37527;SDS011;23372;52.050;4.810;2024-03-23T04:15:54;14.73;;;2.07;;
37527;SDS011;23372;52.050;4.810;2024-03-23T04:18:20;14.30;;;2.20;;
37527;SDS011;23372;52.050;4.810;2024-03-23T04:20:46;12.00;;;1.70;;
37527;SDS011;23372;52.050;4.810;2024-03-23T04:23:13;10.77;;;2.43;;
37527;SDS011;23372;52.050;4.810;2024-03-23T04:25:39;13.13;;;2.27;;
37527;SDS011;23372;52.050;4.810;2024-03-23T04:28:04;5.47;;;2.00;;
37527;SDS011;23372;52.050;4.810;2024-03-23T04:30:30;10.20;;;2.33;;
37527;SDS011;23372;52.050;4.810;2024-03-23T04:32:56;8.60;;;1.93;;
37527;SDS011;23372;52.050;4.810;2024-03-23T04:35:23;15.13;;;2.30;;
37527;SDS011;23372;52.050;4.810;2024-03-23T04:37:50;16.67;;;2.47;;
37527;SDS011;23372;52.050;4.810;2024-03-23T04:40:18;13.03;;;2.67;;
37527;SDS011;23372;52.050;4.810;2024-03-23T04:42:43;14.53;;;2.43;;
37527;SDS011;23372;52.050;4.810;2024-03-23T04:45:09;13.00;;;2.77;;
37527;SDS011;23372;52.050;4.810;2024-03-23T04:47:35;7.73;;;1.90;;
37527;SDS011;23372;52.050;4.810;2024-03-23T04:50:03;8.20;;;1.93;;
37527;SDS011;23372;52.050;4.810;2024-03-23T04:52:29;8.10;;;1.83;;
37527;SDS011;23372;52.050;4.810;2024-03-23T04:54:54;11.27;;;2.17;;
37527;SDS011;23372;52.050;4.810;2024-03-23T04:57:20;12.33;;;2.30;;
37527;SDS011;23372;52.050;4.810;2024-03-23T04:59:46;10.70;;;1.80;;
37527;SDS011;23372;52.050;4.810;2024-03-23T05:02:12;10.60;;;2.17;;
37527;SDS011;23372;52.050;4.810;2024-03-23T05:04:38;11.60;;;1.87;;
37527;SDS011;23372;52.050;4.810;2024-03-23T05:07:05;6.20;;;2.17;;
37527;SDS011;23372;52.050;4.810;2024-03-23T05:09:31;13.50;;;2.00;;
37527;SDS011;23372;52.050;4.810;2024-03-23T05:11:58;18.50;;;3.40;;
37527;SDS011;23372;52.050;4.810;2024-03-23T05:14:26;6.83;;;2.73;;
37527;SDS011;23372;52.050;4.810;2024-03-23T05:16:52;10.43;;;1.90;;
37527;SDS011;23372;52.050;4.810;2024-03-23T05:19:18;13.20;;;2.70;;
37527;SDS011;23372;52.050;4.810;2024-03-23T05:21:43;10.90;;;3.47;;
37527;SDS011;23372;52.050;4.810;2024-03-23T05:24:09;11.23;;;2.97;;
37527;SDS011;23372;52.050;4.810;2024-03-23T05:26:35;12.53;;;2.40;;
37527;SDS011;23372;52.050;4.810;2024-03-23T05:29:01;13.97;;;2.60;;
37527;SDS011;23372;52.050;4.810;2024-03-23T05:31:28;8.03;;;2.03;;
37527;SDS011;23372;52.050;4.810;2024-03-23T05:33:55;12.87;;;3.03;;
37527;SDS011;23372;52.050;4.810;2024-03-23T05:36:20;13.10;;;2.70;;
37527;SDS011;23372;52.050;4.810;2024-03-23T05:38:46;16.40;;;2.20;;
37527;SDS011;23372;52.050;4.810;2024-03-23T05:41:13;11.73;;;4.03;;
37527;SDS011;23372;52.050;4.810;2024-03-23T05:43:39;13.60;;;2.87;;
37527;SDS011;23372;52.050;4.810;2024-03-23T05:46:04;9.90;;;2.20;;
37527;SDS011;23372;52.050;4.810;2024-03-23T05:48:30;10.67;;;2.70;;
37527;SDS011;23372;52.050;4.810;2024-03-23T05:50:57;13.00;;;3.03;;
37527;SDS011;23372;52.050;4.810;2024-03-23T05:53:23;11.33;;;2.87;;
37527;SDS011;23372;52.050;4.810;2024-03-23T05:55:49;12.67;;;3.43;;
37527;SDS011;23372;52.050;4.810;2024-03-23T05:58:16;21.07;;;3.77;;
37527;SDS011;23372;52.050;4.810;2024-03-23T06:00:43;11.67;;;2.63;;
37527;SDS011;23372;52.050;4.810;2024-03-23T06:03:09;11.37;;;2.63;;
37527;SDS011;23372;52.050;4.810;2024-03-23T06:05:36;12.07;;;2.80;;
37527;SDS011;23372;52.050;4.810;2024-03-23T06:08:02;18.53;;;2.83;;
37527;SDS011;23372;52.050;4.810;2024-03-23T06:10:28;17.47;;;3.13;;
37527;SDS011;23372;52.050;4.810;2024-03-23T06:12:53;9.13;;;2.57;;
37527;SDS011;23372;52.050;4.810;2024-03-23T06:15:19;12.47;;;2.77;;
37527;SDS011;23372;52.050;4.810;2024-03-23T06:17:45;6.47;;;2.57;;
37527;SDS011;23372;52.050;4.810;2024-03-23T06:20:11;11.77;;;2.73;;
37527;SDS011;23372;52.050;4.810;2024-03-23T06:22:37;9.83;;;2.80;;
37527;SDS011;23372;52.050;4.810;2024-03-23T06:25:03;16.07;;;3.30;;
37527;SDS011;23372;52.050;4.810;2024-03-23T06:27:29;13.20;;;2.70;;
37527;SDS011;23372;52.050;4.810;2024-03-23T06:29:57;17.33;;;3.23;;
37527;SDS011;23372;52.050;4.810;2024-03-23T06:32:22;18.23;;;3.03;;
37527;SDS011;23372;52.050;4.810;2024-03-23T06:34:48;15.03;;;2.90;;
37527;SDS011;23372;52.050;4.810;2024-03-23T06:37:14;11.80;;;2.83;;
37527;SDS011;23372;52.050;4.810;2024-03-23T06:39:39;13.90;;;3.23;;
37527;SDS011;23372;52.050;4.810;2024-03-23T06:42:05;14.53;;;2.63;;
37527;SDS011;23372;52.050;4.810;2024-03-23T06:44:31;11.50;;;2.20;;
37527;SDS011;23372;52.050;4.810;2024-03-23T06:46:57;16.03;;;3.10;;
37527;SDS011;23372;52.050;4.810;2024-03-23T06:49:23;14.43;;;3.33;;
37527;SDS011;23372;52.050;4.810;2024-03-23T06:51:48;15.60;;;3.17;;
37527;SDS011;23372;52.050;4.810;2024-03-23T06:54:15;9.87;;;2.53;;
37527;SDS011;23372;52.050;4.810;2024-03-23T06:56:42;12.77;;;2.43;;
37527;SDS011;23372;52.050;4.810;2024-03-23T06:59:09;17.03;;;2.33;;
37527;SDS011;23372;52.050;4.810;2024-03-23T07:01:34;16.47;;;2.63;;
37527;SDS011;23372;52.050;4.810;2024-03-23T07:04:00;5.27;;;1.90;;
37527;SDS011;23372;52.050;4.810;2024-03-23T07:06:26;8.90;;;1.90;;
37527;SDS011;23372;52.050;4.810;2024-03-23T07:08:53;10.33;;;2.13;;
37527;SDS011;23372;52.050;4.810;2024-03-23T07:11:19;12.67;;;2.70;;
37527;SDS011;23372;52.050;4.810;2024-03-23T07:13:45;14.37;;;3.03;;
37527;SDS011;23372;52.050;4.810;2024-03-23T07:16:11;11.13;;;2.47;;
37527;SDS011;23372;52.050;4.810;2024-03-23T07:18:38;12.40;;;3.33;;
37527;SDS011;23372;52.050;4.810;2024-03-23T07:21:04;8.53;;;1.90;;
37527;SDS011;23372;52.050;4.810;2024-03-23T07:23:31;9.03;;;2.13;;
37527;SDS011;23372;52.050;4.810;2024-03-23T07:25:59;6.83;;;1.90;;
37527;SDS011;23372;52.050;4.810;2024-03-23T07:28:25;12.60;;;2.20;;
37527;SDS011;23372;52.050;4.810;2024-03-23T07:31:08;11.60;;;2.20;;
37527;SDS011;23372;52.050;4.810;2024-03-23T07:33:37;11.23;;;2.30;;
37527;SDS011;23372;52.050;4.810;2024-03-23T07:36:06;15.67;;;2.30;;
37527;SDS011;23372;52.050;4.810;2024-03-23T07:38:32;12.97;;;2.50;;
37527;SDS011;23372;52.050;4.810;2024-03-23T07:41:05;9.90;;;2.70;;
37527;SDS011;23372;52.050;4.810;2024-03-23T07:43:32;7.10;;;2.07;;
37527;SDS011;23372;52.050;4.810;2024-03-23T07:45:58;15.03;;;2.60;;
37527;SDS011;23372;52.050;4.810;2024-03-23T07:48:24;14.53;;;2.07;;
37527;SDS011;23372;52.050;4.810;2024-03-23T07:50:58;13.67;;;2.90;;
37527;SDS011;23372;52.050;4.810;2024-03-23T07:53:25;12.80;;;2.50;;
37527;SDS011;23372;52.050;4.810;2024-03-23T07:55:54;8.10;;;2.10;;
37527;SDS011;23372;52.050;4.810;2024-03-23T07:58:20;14.93;;;2.30;;
37527;SDS011;23372;52.050;4.810;2024-03-23T08:00:46;9.77;;;1.93;;
37527;SDS011;23372;52.050;4.810;2024-03-23T08:03:11;20.93;;;3.80;;
37527;SDS011;23372;52.050;4.810;2024-03-23T08:05:37;10.73;;;2.23;;
37527;SDS011;23372;52.050;4.810;2024-03-23T08:08:03;14.00;;;1.87;;
37527;SDS011;23372;52.050;4.810;2024-03-23T08:10:28;11.80;;;1.87;;
37527;SDS011;23372;52.050;4.810;2024-03-23T08:12:54;11.27;;;1.90;;
37527;SDS011;23372;52.050;4.810;2024-03-23T08:15:20;12.18;;;2.47;;
37527;SDS011;23372;52.050;4.810;2024-03-23T08:17:45;7.25;;;1.75;;
37527;SDS011;23372;52.050;4.810;2024-03-23T08:20:11;6.85;;;1.50;;
37527;SDS011;23372;52.050;4.810;2024-03-23T08:22:37;7.05;;;1.63;;
37527;SDS011;23372;52.050;4.810;2024-03-23T08:25:02;11.25;;;1.92;;
37527;SDS011;23372;52.050;4.810;2024-03-23T08:27:28;6.50;;;2.53;;
37527;SDS011;23372;52.050;4.810;2024-03-23T08:29:54;10.40;;;2.63;;
37527;SDS011;23372;52.050;4.810;2024-03-23T08:32:19;10.17;;;1.97;;
37527;SDS011;23372;52.050;4.810;2024-03-23T08:34:45;9.80;;;1.87;;
37527;SDS011;23372;52.050;4.810;2024-03-23T08:37:10;11.67;;;2.47;;
37527;SDS011;23372;52.050;4.810;2024-03-23T08:39:36;8.67;;;2.03;;
37527;SDS011;23372;52.050;4.810;2024-03-23T08:42:01;11.23;;;2.40;;
37527;SDS011;23372;52.050;4.810;2024-03-23T08:44:27;11.07;;;2.00;;
37527;SDS011;23372;52.050;4.810;2024-03-23T08:46:55;7.73;;;1.80;;
37527;SDS011;23372;52.050;4.810;2024-03-23T08:49:21;10.07;;;1.83;;
37527;SDS011;23372;52.050;4.810;2024-03-23T08:51:47;7.60;;;2.13;;
37527;SDS011;23372;52.050;4.810;2024-03-23T08:54:12;13.53;;;2.53;;
37527;SDS011;23372;52.050;4.810;2024-03-23T08:56:38;9.57;;;2.13;;
37527;SDS011;23372;52.050;4.810;2024-03-23T08:59:03;12.20;;;2.40;;
37527;SDS011;23372;52.050;4.810;2024-03-23T09:01:29;12.37;;;2.33;;
37527;SDS011;23372;52.050;4.810;2024-03-23T09:03:55;9.77;;;1.80;;
37527;SDS011;23372;52.050;4.810;2024-03-23T09:06:20;9.43;;;1.83;;
37527;SDS011;23372;52.050;4.810;2024-03-23T09:08:46;15.60;;;2.60;;
37527;SDS011;23372;52.050;4.810;2024-03-23T09:11:12;9.87;;;2.10;;
37527;SDS011;23372;52.050;4.810;2024-03-23T09:13:38;9.13;;;2.23;;
37527;SDS011;23372;52.050;4.810;2024-03-23T09:16:05;9.73;;;2.10;;
37527;SDS011;23372;52.050;4.810;2024-03-23T09:18:32;7.73;;;1.63;;
37527;SDS011;23372;52.050;4.810;2024-03-23T09:21:00;14.83;;;2.13;;
37527;SDS011;23372;52.050;4.810;2024-03-23T09:23:25;8.03;;;1.57;;
37527;SDS011;23372;52.050;4.810;2024-03-23T09:25:51;8.13;;;1.83;;
37527;SDS011;23372;52.050;4.810;2024-03-23T09:28:17;6.27;;;2.17;;
37527;SDS011;23372;52.050;4.810;2024-03-23T09:30:42;7.77;;;1.63;;
37527;SDS011;23372;52.050;4.810;2024-03-23T09:33:08;9.27;;;1.73;;
37527;SDS011;23372;52.050;4.810;2024-03-23T09:35:38;14.23;;;2.33;;
37527;SDS011;23372;52.050;4.810;2024-03-23T09:38:05;14.73;;;2.30;;
37527;SDS011;23372;52.050;4.810;2024-03-23T09:40:33;12.57;;;2.73;;
37527;SDS011;23372;52.050;4.810;2024-03-23T09:43:00;7.60;;;1.70;;
37527;SDS011;23372;52.050;4.810;2024-03-23T09:45:27;7.53;;;1.33;;
37527;SDS011;23372;52.050;4.810;2024-03-23T09:47:54;12.20;;;2.10;;
37527;SDS011;23372;52.050;4.810;2024-03-23T09:50:20;6.30;;;1.53;;
37527;SDS011;23372;52.050;4.810;2024-03-23T09:52:46;10.47;;;1.90;;
37527;SDS011;23372;52.050;4.810;2024-03-23T09:55:12;13.47;;;2.33;;
37527;SDS011;23372;52.050;4.810;2024-03-23T09:57:39;9.53;;;2.43;;
37527;SDS011;23372;52.050;4.810;2024-03-23T10:00:05;10.90;;;2.70;;
37527;SDS011;23372;52.050;4.810;2024-03-23T10:02:32;13.13;;;2.47;;
37527;SDS011;23372;52.050;4.810;2024-03-23T10:04:59;10.37;;;2.13;;
37527;SDS011;23372;52.050;4.810;2024-03-23T10:07:25;8.17;;;1.77;;
37527;SDS011;23372;52.050;4.810;2024-03-23T10:09:53;9.00;;;1.80;;
37527;SDS011;23372;52.050;4.810;2024-03-23T10:12:19;7.70;;;1.93;;
37527;SDS011;23372;52.050;4.810;2024-03-23T10:14:45;9.37;;;1.60;;
37527;SDS011;23372;52.050;4.810;2024-03-23T10:17:13;10.33;;;1.37;;
37527;SDS011;23372;52.050;4.810;2024-03-23T10:19:46;9.07;;;1.67;;
37527;SDS011;23372;52.050;4.810;2024-03-23T10:22:14;8.67;;;2.10;;
37527;SDS011;23372;52.050;4.810;2024-03-23T10:24:43;10.10;;;2.47;;
37527;SDS011;23372;52.050;4.810;2024-03-23T10:27:09;10.10;;;1.57;;
37527;SDS011;23372;52.050;4.810;2024-03-23T10:29:34;8.70;;;1.43;;
37527;SDS011;23372;52.050;4.810;2024-03-23T10:32:08;12.13;;;2.20;;
37527;SDS011;23372;52.050;4.810;2024-03-23T10:34:35;11.20;;;1.60;;
37527;SDS011;23372;52.050;4.810;2024-03-23T10:37:02;9.30;;;2.17;;
37527;SDS011;23372;52.050;4.810;2024-03-23T10:39:30;11.53;;;2.47;;
37527;SDS011;23372;52.050;4.810;2024-03-23T10:42:02;9.90;;;1.60;;
37527;SDS011;23372;52.050;4.810;2024-03-23T10:44:29;8.20;;;2.03;;
37527;SDS011;23372;52.050;4.810;2024-03-23T10:46:56;11.80;;;2.13;;
37527;SDS011;23372;52.050;4.810;2024-03-23T10:49:26;5.67;;;1.73;;
37527;SDS011;23372;52.050;4.810;2024-03-23T10:51:54;10.33;;;2.60;;
37527;SDS011;23372;52.050;4.810;2024-03-23T10:54:21;6.40;;;1.27;;
37527;SDS011;23372;52.050;4.810;2024-03-23T10:56:49;11.17;;;1.70;;
37527;SDS011;23372;52.050;4.810;2024-03-23T10:59:20;8.40;;;1.60;;
37527;SDS011;23372;52.050;4.810;2024-03-23T11:02:01;8.47;;;1.90;;
37527;SDS011;23372;52.050;4.810;2024-03-23T11:04:32;8.03;;;1.93;;
37527;SDS011;23372;52.050;4.810;2024-03-23T11:06:58;12.07;;;2.70;;
37527;SDS011;23372;52.050;4.810;2024-03-23T11:14:53;12.03;;;1.80;;
37527;SDS011;23372;52.050;4.810;2024-03-23T11:17:21;11.40;;;1.43;;
37527;SDS011;23372;52.050;4.810;2024-03-23T11:19:55;9.93;;;2.40;;
37527;SDS011;23372;52.050;4.810;2024-03-23T11:25:14;11.40;;;2.37;;
37527;SDS011;23372;52.050;4.810;2024-03-23T11:27:47;8.93;;;2.20;;
37527;SDS011;23372;52.050;4.810;2024-03-23T11:30:16;9.03;;;1.97;;
37527;SDS011;23372;52.050;4.810;2024-03-23T11:32:46;11.47;;;2.00;;
37527;SDS011;23372;52.050;4.810;2024-03-23T11:38:01;12.70;;;2.77;;
37527;SDS011;23372;52.050;4.810;2024-03-23T11:40:28;10.17;;;2.03;;
37527;SDS011;23372;52.050;4.810;2024-03-23T11:42:55;7.27;;;1.60;;
37527;SDS011;23372;52.050;4.810;2024-03-23T11:45:24;11.90;;;1.90;;
37527;SDS011;23372;52.050;4.810;2024-03-23T11:48:01;14.90;;;2.30;;
37527;SDS011;23372;52.050;4.810;2024-03-23T11:50:29;8.03;;;1.80;;
37527;SDS011;23372;52.050;4.810;2024-03-23T11:53:05;10.17;;;1.83;;
37527;SDS011;23372;52.050;4.810;2024-03-23T11:55:40;8.33;;;2.00;;
37527;SDS011;23372;52.050;4.810;2024-03-23T11:58:08;7.10;;;1.57;;
37527;SDS011;23372;52.050;4.810;2024-03-23T12:00:34;9.07;;;1.70;;
37527;SDS011;23372;52.050;4.810;2024-03-23T12:03:01;8.57;;;1.50;;
37527;SDS011;23372;52.050;4.810;2024-03-23T12:05:27;7.20;;;2.10;;
37527;SDS011;23372;52.050;4.810;2024-03-23T12:07:54;12.60;;;1.70;;
37527;SDS011;23372;52.050;4.810;2024-03-23T12:10:20;11.13;;;2.57;;
37527;SDS011;23372;52.050;4.810;2024-03-23T12:12:45;9.07;;;1.53;;
37527;SDS011;23372;52.050;4.810;2024-03-23T12:15:11;5.07;;;1.30;;
37527;SDS011;23372;52.050;4.810;2024-03-23T12:17:39;12.57;;;1.97;;
37527;SDS011;23372;52.050;4.810;2024-03-23T12:20:05;8.27;;;1.87;;
37527;SDS011;23372;52.050;4.810;2024-03-23T12:22:32;7.33;;;1.60;;
37527;SDS011;23372;52.050;4.810;2024-03-23T12:24:59;13.13;;;2.07;;
37527;SDS011;23372;52.050;4.810;2024-03-23T12:27:25;6.27;;;1.30;;
37527;SDS011;23372;52.050;4.810;2024-03-23T12:29:50;9.43;;;1.83;;
37527;SDS011;23372;52.050;4.810;2024-03-23T12:32:16;10.47;;;1.60;;
37527;SDS011;23372;52.050;4.810;2024-03-23T12:34:42;9.03;;;1.80;;
37527;SDS011;23372;52.050;4.810;2024-03-23T12:37:08;10.20;;;2.00;;
37527;SDS011;23372;52.050;4.810;2024-03-23T12:39:35;9.30;;;1.47;;
37527;SDS011;23372;52.050;4.810;2024-03-23T12:42:01;8.13;;;1.43;;
37527;SDS011;23372;52.050;4.810;2024-03-23T12:44:28;6.53;;;1.17;;
37527;SDS011;23372;52.050;4.810;2024-03-23T12:46:54;3.87;;;0.70;;
37527;SDS011;23372;52.050;4.810;2024-03-23T12:49:19;5.27;;;1.30;;
37527;SDS011;23372;52.050;4.810;2024-03-23T12:51:49;3.73;;;1.30;;
37527;SDS011;23372;52.050;4.810;2024-03-23T12:54:20;6.83;;;1.30;;
37527;SDS011;23372;52.050;4.810;2024-03-23T12:56:46;3.83;;;1.00;;
37527;SDS011;23372;52.050;4.810;2024-03-23T12:59:11;9.33;;;2.00;;
37527;SDS011;23372;52.050;4.810;2024-03-23T13:01:38;7.60;;;1.17;;
37527;SDS011;23372;52.050;4.810;2024-03-23T13:04:04;9.77;;;1.43;;
37527;SDS011;23372;52.050;4.810;2024-03-23T13:06:29;6.40;;;1.50;;
37527;SDS011;23372;52.050;4.810;2024-03-23T13:08:59;8.07;;;1.80;;
37527;SDS011;23372;52.050;4.810;2024-03-23T13:11:26;6.23;;;1.57;;
37527;SDS011;23372;52.050;4.810;2024-03-23T13:13:52;10.83;;;1.70;;
37527;SDS011;23372;52.050;4.810;2024-03-23T13:16:17;3.50;;;1.07;;
37527;SDS011;23372;52.050;4.810;2024-03-23T13:18:43;13.03;;;1.33;;
37527;SDS011;23372;52.050;4.810;2024-03-23T13:21:09;8.93;;;1.80;;
37527;SDS011;23372;52.050;4.810;2024-03-23T13:23:34;4.43;;;1.33;;
37527;SDS011;23372;52.050;4.810;2024-03-23T13:26:01;12.37;;;2.10;;
37527;SDS011;23372;52.050;4.810;2024-03-23T13:28:26;9.47;;;2.03;;
37527;SDS011;23372;52.050;4.810;2024-03-23T13:30:52;12.20;;;1.83;;
37527;SDS011;23372;52.050;4.810;2024-03-23T13:33:19;10.50;;;2.00;;
37527;SDS011;23372;52.050;4.810;2024-03-23T13:35:52;7.37;;;1.83;;
37527;SDS011;23372;52.050;4.810;2024-03-23T13:38:19;12.00;;;2.27;;
37527;SDS011;23372;52.050;4.810;2024-03-23T13:40:53;7.37;;;1.60;;
37527;SDS011;23372;52.050;4.810;2024-03-23T13:43:21;18.90;;;2.67;;
37527;SDS011;23372;52.050;4.810;2024-03-23T13:45:48;9.63;;;2.10;;
37527;SDS011;23372;52.050;4.810;2024-03-23T13:48:16;11.93;;;1.93;;
37527;SDS011;23372;52.050;4.810;2024-03-23T13:50:43;7.37;;;1.53;;
37527;SDS011;23372;52.050;4.810;2024-03-23T13:53:08;7.67;;;1.43;;
37527;SDS011;23372;52.050;4.810;2024-03-23T13:55:34;9.57;;;1.27;;
37527;SDS011;23372;52.050;4.810;2024-03-23T13:58:00;6.60;;;1.93;;
37527;SDS011;23372;52.050;4.810;2024-03-23T14:00:26;8.37;;;1.37;;
37527;SDS011;23372;52.050;4.810;2024-03-23T14:02:52;7.17;;;1.80;;
37527;SDS011;23372;52.050;4.810;2024-03-23T14:05:18;8.50;;;1.57;;
37527;SDS011;23372;52.050;4.810;2024-03-23T14:07:43;10.47;;;1.60;;
37527;SDS011;23372;52.050;4.810;2024-03-23T14:10:09;10.63;;;1.63;;
37527;SDS011;23372;52.050;4.810;2024-03-23T14:12:36;13.07;;;2.20;;
37527;SDS011;23372;52.050;4.810;2024-03-23T14:15:05;4.20;;;1.00;;
37527;SDS011;23372;52.050;4.810;2024-03-23T14:17:31;11.40;;;1.90;;
37527;SDS011;23372;52.050;4.810;2024-03-23T14:19:57;4.07;;;0.70;;
37527;SDS011;23372;52.050;4.810;2024-03-23T14:22:26;2.80;;;0.87;;
37527;SDS011;23372;52.050;4.810;2024-03-23T14:24:53;3.40;;;0.90;;
37527;SDS011;23372;52.050;4.810;2024-03-23T14:27:18;2.90;;;0.93;;
37527;SDS011;23372;52.050;4.810;2024-03-23T14:29:46;4.07;;;1.03;;
37527;SDS011;23372;52.050;4.810;2024-03-23T14:32:12;4.70;;;0.87;;
37527;SDS011;23372;52.050;4.810;2024-03-23T14:34:37;5.13;;;1.33;;
37527;SDS011;23372;52.050;4.810;2024-03-23T14:37:03;4.70;;;0.90;;
37527;SDS011;23372;52.050;4.810;2024-03-23T14:39:30;5.20;;;1.07;;
37527;SDS011;23372;52.050;4.810;2024-03-23T14:41:56;4.63;;;1.07;;
37527;SDS011;23372;52.050;4.810;2024-03-23T14:44:22;4.87;;;1.13;;
37527;SDS011;23372;52.050;4.810;2024-03-23T14:46:48;4.43;;;1.40;;
37527;SDS011;23372;52.050;4.810;2024-03-23T14:49:14;8.60;;;1.30;;
37527;SDS011;23372;52.050;4.810;2024-03-23T14:51:41;7.50;;;1.43;;
37527;SDS011;23372;52.050;4.810;2024-03-23T14:54:07;8.23;;;1.57;;
37527;SDS011;23372;52.050;4.810;2024-03-23T14:56:33;6.83;;;1.37;;
37527;SDS011;23372;52.050;4.810;2024-03-23T14:58:59;9.17;;;1.60;;
37527;SDS011;23372;52.050;4.810;2024-03-23T15:01:25;6.87;;;1.30;;
37527;SDS011;23372;52.050;4.810;2024-03-23T15:03:51;11.37;;;1.33;;
37527;SDS011;23372;52.050;4.810;2024-03-23T15:06:18;11.57;;;2.47;;
37527;SDS011;23372;52.050;4.810;2024-03-23T15:08:44;9.57;;;1.77;;
37527;SDS011;23372;52.050;4.810;2024-03-23T15:11:10;7.17;;;1.47;;
37527;SDS011;23372;52.050;4.810;2024-03-23T15:13:36;8.60;;;2.83;;
37527;SDS011;23372;52.050;4.810;2024-03-23T15:16:03;10.43;;;1.97;;
37527;SDS011;23372;52.050;4.810;2024-03-23T15:18:30;7.47;;;2.23;;
37527;SDS011;23372;52.050;4.810;2024-03-23T15:20:58;10.00;;;1.23;;
37527;SDS011;23372;52.050;4.810;2024-03-23T15:23:27;6.40;;;1.40;;
37527;SDS011;23372;52.050;4.810;2024-03-23T15:25:54;8.43;;;1.57;;
37527;SDS011;23372;52.050;4.810;2024-03-23T15:28:21;4.83;;;1.23;;
37527;SDS011;23372;52.050;4.810;2024-03-23T15:30:47;2.90;;;0.93;;
37527;SDS011;23372;52.050;4.810;2024-03-23T15:33:13;11.57;;;1.80;;
37527;SDS011;23372;52.050;4.810;2024-03-23T15:35:39;11.37;;;1.43;;
37527;SDS011;23372;52.050;4.810;2024-03-23T15:38:04;7.17;;;1.03;;
37527;SDS011;23372;52.050;4.810;2024-03-23T15:40:30;5.43;;;1.80;;